sensor_id;sensor_type;location;lat;lon;timestamp;P1;durP1;ratioP1;P2;durP2;ratioP2
13228;SDS011;6680;53.220;10.402;2022-09-09T00:01:00;9.43;;;6.87;;
13228;SDS011;6680;53.220;10.402;2022-09-09T00:03:39;9.77;;;6.30;;
13228;SDS011;6680;53.220;10.402;2022-09-09T00:06:13;10.00;;;6.50;;
13228;SDS011;6680;53.220;10.402;2022-09-09T00:08:48;9.90;;;6.33;;
13228;SDS011;6680;53.220;10.402;2022-09-09T00:11:24;9.23;;;6.37;;
13228;SDS011;6680;53.220;10.402;2022-09-09T00:13:57;8.57;;;6.20;;
13228;SDS011;6680;53.220;10.402;2022-09-09T00:16:29;9.20;;;6.97;;
13228;SDS011;6680;53.220;10.402;2022-09-09T00:19:03;9.03;;;6.07;;
13228;SDS011;6680;53.220;10.402;2022-09-09T00:21:37;8.60;;;6.07;;
13228;SDS011;6680;53.220;10.402;2022-09-09T00:24:10;9.80;;;6.70;;
13228;SDS011;6680;53.220;10.402;2022-09-09T00:26:45;9.00;;;5.87;;
13228;SDS011;6680;53.220;10.402;2022-09-09T00:29:20;9.07;;;6.43;;
13228;SDS011;6680;53.220;10.402;2022-09-09T00:31:53;10.83;;;6.90;;
13228;SDS011;6680;53.220;10.402;2022-09-09T00:34:25;9.33;;;6.50;;
13228;SDS011;6680;53.220;10.402;2022-09-09T00:36:54;10.27;;;6.80;;
13228;SDS011;6680;53.220;10.402;2022-09-09T00:39:25;8.93;;;6.23;;
13228;SDS011;6680;53.220;10.402;2022-09-09T00:42:02;8.77;;;6.27;;
13228;SDS011;6680;53.220;10.402;2022-09-09T00:44:39;9.07;;;6.27;;
13228;SDS011;6680;53.220;10.402;2022-09-09T00:47:21;8.73;;;6.33;;
13228;SDS011;6680;53.220;10.402;2022-09-09T00:50:11;9.23;;;6.63;;
13228;SDS011;6680;53.220;10.402;2022-09-09T00:52:56;8.17;;;6.00;;
13228;SDS011;6680;53.220;10.402;2022-09-09T00:55:33;7.33;;;5.70;;
13228;SDS011;6680;53.220;10.402;2022-09-09T00:58:08;9.93;;;6.83;;
13228;SDS011;6680;53.220;10.402;2022-09-09T01:00:37;9.50;;;6.57;;
13228;SDS011;6680;53.220;10.402;2022-09-09T01:03:17;7.90;;;6.07;;
13228;SDS011;6680;53.220;10.402;2022-09-09T01:05:51;8.07;;;5.50;;
13228;SDS011;6680;53.220;10.402;2022-09-09T01:08:35;8.93;;;6.33;;
13228;SDS011;6680;53.220;10.402;2022-09-09T01:11:14;8.20;;;6.23;;
13228;SDS011;6680;53.220;10.402;2022-09-09T01:13:46;10.53;;;6.13;;
13228;SDS011;6680;53.220;10.402;2022-09-09T01:16:15;8.80;;;6.47;;
13228;SDS011;6680;53.220;10.402;2022-09-09T01:18:44;9.13;;;6.23;;
13228;SDS011;6680;53.220;10.402;2022-09-09T01:21:18;7.73;;;5.97;;
13228;SDS011;6680;53.220;10.402;2022-09-09T01:24:01;8.13;;;5.90;;
13228;SDS011;6680;53.220;10.402;2022-09-09T01:26:44;7.50;;;5.50;;
13228;SDS011;6680;53.220;10.402;2022-09-09T01:29:13;7.73;;;5.87;;
13228;SDS011;6680;53.220;10.402;2022-09-09T01:31:43;8.63;;;6.07;;
13228;SDS011;6680;53.220;10.402;2022-09-09T01:34:19;8.63;;;6.33;;
13228;SDS011;6680;53.220;10.402;2022-09-09T01:36:48;7.23;;;5.47;;
13228;SDS011;6680;53.220;10.402;2022-09-09T01:39:21;6.33;;;5.57;;
13228;SDS011;6680;53.220;10.402;2022-09-09T01:41:49;7.30;;;5.27;;
13228;SDS011;6680;53.220;10.402;2022-09-09T01:44:17;6.60;;;5.30;;
13228;SDS011;6680;53.220;10.402;2022-09-09T01:46:46;7.93;;;5.50;;
13228;SDS011;6680;53.220;10.402;2022-09-09T01:49:13;7.27;;;5.53;;
13228;SDS011;6680;53.220;10.402;2022-09-09T01:51:40;8.20;;;5.90;;
13228;SDS011;6680;53.220;10.402;2022-09-09T01:54:08;7.17;;;5.57;;
13228;SDS011;6680;53.220;10.402;2022-09-09T01:56:40;6.83;;;5.00;;
13228;SDS011;6680;53.220;10.402;2022-09-09T01:59:24;9.47;;;6.43;;
13228;SDS011;6680;53.220;10.402;2022-09-09T02:02:08;7.37;;;5.20;;
13228;SDS011;6680;53.220;10.402;2022-09-09T02:04:38;9.50;;;5.50;;
13228;SDS011;6680;53.220;10.402;2022-09-09T02:07:10;7.00;;;5.30;;
13228;SDS011;6680;53.220;10.402;2022-09-09T02:09:46;7.63;;;5.97;;
13228;SDS011;6680;53.220;10.402;2022-09-09T02:12:16;7.03;;;5.20;;
13228;SDS011;6680;53.220;10.402;2022-09-09T02:14:50;6.93;;;5.87;;
13228;SDS011;6680;53.220;10.402;2022-09-09T02:17:29;8.43;;;5.53;;
13228;SDS011;6680;53.220;10.402;2022-09-09T02:20:01;7.40;;;5.40;;
13228;SDS011;6680;53.220;10.402;2022-09-09T02:22:31;8.33;;;5.53;;
13228;SDS011;6680;53.220;10.402;2022-09-09T02:25:00;7.20;;;5.73;;
13228;SDS011;6680;53.220;10.402;2022-09-09T02:27:28;6.60;;;5.50;;
13228;SDS011;6680;53.220;10.402;2022-09-09T02:29:57;7.83;;;6.07;;
13228;SDS011;6680;53.220;10.402;2022-09-09T02:32:27;7.30;;;5.47;;
13228;SDS011;6680;53.220;10.402;2022-09-09T02:34:57;6.53;;;5.33;;
13228;SDS011;6680;53.220;10.402;2022-09-09T02:37:29;7.53;;;5.70;;
13228;SDS011;6680;53.220;10.402;2022-09-09T02:40:02;7.50;;;5.93;;
13228;SDS011;6680;53.220;10.402;2022-09-09T02:42:29;9.13;;;6.37;;
13228;SDS011;6680;53.220;10.402;2022-09-09T02:44:55;7.53;;;5.83;;
13228;SDS011;6680;53.220;10.402;2022-09-09T02:47:29;8.90;;;6.17;;
13228;SDS011;6680;53.220;10.402;2022-09-09T02:50:08;8.03;;;5.37;;
13228;SDS011;6680;53.220;10.402;2022-09-09T02:52:42;8.97;;;5.57;;
13228;SDS011;6680;53.220;10.402;2022-09-09T02:55:17;8.20;;;6.23;;
13228;SDS011;6680;53.220;10.402;2022-09-09T02:57:50;8.17;;;5.80;;
13228;SDS011;6680;53.220;10.402;2022-09-09T03:00:24;10.40;;;6.53;;
13228;SDS011;6680;53.220;10.402;2022-09-09T03:02:52;8.97;;;5.53;;
13228;SDS011;6680;53.220;10.402;2022-09-09T03:05:19;7.87;;;5.63;;
13228;SDS011;6680;53.220;10.402;2022-09-09T03:07:47;7.73;;;5.50;;
13228;SDS011;6680;53.220;10.402;2022-09-09T03:10:14;7.87;;;5.83;;
13228;SDS011;6680;53.220;10.402;2022-09-09T03:12:41;6.60;;;5.03;;
13228;SDS011;6680;53.220;10.402;2022-09-09T03:15:08;13.60;;;5.97;;
13228;SDS011;6680;53.220;10.402;2022-09-09T03:17:37;9.10;;;5.97;;
13228;SDS011;6680;53.220;10.402;2022-09-09T03:20:04;8.53;;;6.43;;
13228;SDS011;6680;53.220;10.402;2022-09-09T03:22:32;9.57;;;6.17;;
13228;SDS011;6680;53.220;10.402;2022-09-09T03:24:59;6.43;;;5.13;;
13228;SDS011;6680;53.220;10.402;2022-09-09T03:27:26;7.57;;;5.83;;
13228;SDS011;6680;53.220;10.402;2022-09-09T03:29:53;8.70;;;5.47;;
13228;SDS011;6680;53.220;10.402;2022-09-09T03:32:21;9.60;;;5.57;;
13228;SDS011;6680;53.220;10.402;2022-09-09T03:34:52;7.53;;;5.33;;
13228;SDS011;6680;53.220;10.402;2022-09-09T03:37:19;7.23;;;5.77;;
13228;SDS011;6680;53.220;10.402;2022-09-09T03:39:47;8.97;;;6.30;;
13228;SDS011;6680;53.220;10.402;2022-09-09T03:42:14;7.83;;;5.63;;
13228;SDS011;6680;53.220;10.402;2022-09-09T03:44:43;9.97;;;6.47;;
13228;SDS011;6680;53.220;10.402;2022-09-09T03:47:12;8.47;;;6.37;;
13228;SDS011;6680;53.220;10.402;2022-09-09T03:49:40;8.97;;;5.83;;
13228;SDS011;6680;53.220;10.402;2022-09-09T03:52:09;10.10;;;6.23;;
13228;SDS011;6680;53.220;10.402;2022-09-09T03:54:36;8.03;;;5.80;;
13228;SDS011;6680;53.220;10.402;2022-09-09T03:57:03;7.37;;;5.70;;
13228;SDS011;6680;53.220;10.402;2022-09-09T03:59:31;7.30;;;5.73;;
13228;SDS011;6680;53.220;10.402;2022-09-09T04:01:57;7.80;;;5.30;;
13228;SDS011;6680;53.220;10.402;2022-09-09T04:04:24;7.77;;;5.47;;
13228;SDS011;6680;53.220;10.402;2022-09-09T04:06:52;7.90;;;5.67;;
13228;SDS011;6680;53.220;10.402;2022-09-09T04:09:20;9.17;;;5.87;;
13228;SDS011;6680;53.220;10.402;2022-09-09T04:11:47;7.23;;;5.60;;
13228;SDS011;6680;53.220;10.402;2022-09-09T04:14:14;7.70;;;5.73;;
13228;SDS011;6680;53.220;10.402;2022-09-09T04:16:41;8.00;;;5.60;;
13228;SDS011;6680;53.220;10.402;2022-09-09T04:19:09;8.47;;;5.63;;
13228;SDS011;6680;53.220;10.402;2022-09-09T04:21:38;8.10;;;6.17;;
13228;SDS011;6680;53.220;10.402;2022-09-09T04:24:06;9.37;;;5.63;;
13228;SDS011;6680;53.220;10.402;2022-09-09T04:26:34;8.13;;;5.83;;
13228;SDS011;6680;53.220;10.402;2022-09-09T04:29:02;8.20;;;5.13;;
13228;SDS011;6680;53.220;10.402;2022-09-09T04:31:29;5.77;;;4.97;;
13228;SDS011;6680;53.220;10.402;2022-09-09T04:33:56;11.33;;;6.40;;
13228;SDS011;6680;53.220;10.402;2022-09-09T04:36:23;6.37;;;5.37;;
13228;SDS011;6680;53.220;10.402;2022-09-09T04:38:50;8.43;;;5.50;;
13228;SDS011;6680;53.220;10.402;2022-09-09T04:41:18;6.63;;;4.93;;
13228;SDS011;6680;53.220;10.402;2022-09-09T04:43:46;7.67;;;5.07;;
13228;SDS011;6680;53.220;10.402;2022-09-09T04:46:12;6.80;;;5.53;;
13228;SDS011;6680;53.220;10.402;2022-09-09T04:48:42;6.57;;;4.50;;
13228;SDS011;6680;53.220;10.402;2022-09-09T04:51:09;9.77;;;4.30;;
13228;SDS011;6680;53.220;10.402;2022-09-09T04:53:39;6.30;;;4.33;;
13228;SDS011;6680;53.220;10.402;2022-09-09T04:56:06;6.97;;;5.27;;
13228;SDS011;6680;53.220;10.402;2022-09-09T04:58:35;7.13;;;4.27;;
13228;SDS011;6680;53.220;10.402;2022-09-09T05:01:05;6.93;;;4.20;;
13228;SDS011;6680;53.220;10.402;2022-09-09T05:03:32;6.90;;;4.63;;
13228;SDS011;6680;53.220;10.402;2022-09-09T05:06:03;4.70;;;3.70;;
13228;SDS011;6680;53.220;10.402;2022-09-09T05:08:31;5.60;;;4.43;;
13228;SDS011;6680;53.220;10.402;2022-09-09T05:10:58;5.90;;;4.57;;
13228;SDS011;6680;53.220;10.402;2022-09-09T05:13:25;4.63;;;4.00;;
13228;SDS011;6680;53.220;10.402;2022-09-09T05:15:52;5.17;;;3.67;;
13228;SDS011;6680;53.220;10.402;2022-09-09T05:18:20;4.83;;;4.20;;
13228;SDS011;6680;53.220;10.402;2022-09-09T05:20:47;4.53;;;4.10;;
13228;SDS011;6680;53.220;10.402;2022-09-09T05:23:14;5.87;;;4.20;;
13228;SDS011;6680;53.220;10.402;2022-09-09T05:25:41;4.80;;;3.80;;
13228;SDS011;6680;53.220;10.402;2022-09-09T05:28:08;4.20;;;3.80;;
13228;SDS011;6680;53.220;10.402;2022-09-09T05:30:36;4.60;;;3.33;;
13228;SDS011;6680;53.220;10.402;2022-09-09T05:33:03;4.60;;;3.40;;
13228;SDS011;6680;53.220;10.402;2022-09-09T05:35:32;5.63;;;3.10;;
13228;SDS011;6680;53.220;10.402;2022-09-09T05:37:59;4.30;;;3.67;;
13228;SDS011;6680;53.220;10.402;2022-09-09T05:40:26;4.23;;;3.70;;
13228;SDS011;6680;53.220;10.402;2022-09-09T05:42:53;3.60;;;3.30;;
13228;SDS011;6680;53.220;10.402;2022-09-09T05:45:20;4.83;;;3.70;;
13228;SDS011;6680;53.220;10.402;2022-09-09T05:47:50;4.97;;;3.90;;
13228;SDS011;6680;53.220;10.402;2022-09-09T05:50:18;4.47;;;3.90;;
13228;SDS011;6680;53.220;10.402;2022-09-09T05:52:46;5.03;;;3.37;;
13228;SDS011;6680;53.220;10.402;2022-09-09T05:55:14;4.17;;;3.27;;
13228;SDS011;6680;53.220;10.402;2022-09-09T05:57:41;5.07;;;3.33;;
13228;SDS011;6680;53.220;10.402;2022-09-09T06:00:08;4.13;;;3.63;;
13228;SDS011;6680;53.220;10.402;2022-09-09T06:02:37;3.20;;;2.90;;
13228;SDS011;6680;53.220;10.402;2022-09-09T06:05:04;3.07;;;2.80;;
13228;SDS011;6680;53.220;10.402;2022-09-09T06:07:32;3.93;;;3.53;;
13228;SDS011;6680;53.220;10.402;2022-09-09T06:10:00;3.37;;;3.07;;
13228;SDS011;6680;53.220;10.402;2022-09-09T06:12:26;2.80;;;2.60;;
13228;SDS011;6680;53.220;10.402;2022-09-09T06:14:53;3.07;;;2.77;;
13228;SDS011;6680;53.220;10.402;2022-09-09T06:17:20;3.07;;;2.53;;
13228;SDS011;6680;53.220;10.402;2022-09-09T06:19:46;2.83;;;2.60;;
13228;SDS011;6680;53.220;10.402;2022-09-09T06:22:13;3.20;;;2.70;;
13228;SDS011;6680;53.220;10.402;2022-09-09T06:24:40;3.07;;;2.53;;
13228;SDS011;6680;53.220;10.402;2022-09-09T06:27:08;3.07;;;2.53;;
13228;SDS011;6680;53.220;10.402;2022-09-09T06:29:35;2.90;;;2.57;;
13228;SDS011;6680;53.220;10.402;2022-09-09T06:32:02;3.30;;;2.63;;
13228;SDS011;6680;53.220;10.402;2022-09-09T06:34:29;3.13;;;2.50;;
13228;SDS011;6680;53.220;10.402;2022-09-09T06:36:56;6.10;;;2.67;;
13228;SDS011;6680;53.220;10.402;2022-09-09T06:39:23;2.87;;;2.37;;
13228;SDS011;6680;53.220;10.402;2022-09-09T06:41:50;2.70;;;2.50;;
13228;SDS011;6680;53.220;10.402;2022-09-09T06:44:19;3.27;;;2.90;;
13228;SDS011;6680;53.220;10.402;2022-09-09T06:46:47;2.80;;;2.60;;
13228;SDS011;6680;53.220;10.402;2022-09-09T06:49:14;4.40;;;2.57;;
13228;SDS011;6680;53.220;10.402;2022-09-09T06:51:41;2.97;;;2.70;;
13228;SDS011;6680;53.220;10.402;2022-09-09T06:54:08;5.53;;;2.77;;
13228;SDS011;6680;53.220;10.402;2022-09-09T06:56:37;2.73;;;2.53;;
13228;SDS011;6680;53.220;10.402;2022-09-09T06:59:05;2.40;;;2.20;;
13228;SDS011;6680;53.220;10.402;2022-09-09T07:01:36;3.03;;;2.50;;
13228;SDS011;6680;53.220;10.402;2022-09-09T07:04:05;4.50;;;2.50;;
13228;SDS011;6680;53.220;10.402;2022-09-09T07:06:33;3.87;;;2.30;;
13228;SDS011;6680;53.220;10.402;2022-09-09T07:09:03;2.77;;;2.47;;
13228;SDS011;6680;53.220;10.402;2022-09-09T07:11:33;2.50;;;2.30;;
13228;SDS011;6680;53.220;10.402;2022-09-09T07:14:00;3.93;;;2.60;;
13228;SDS011;6680;53.220;10.402;2022-09-09T07:16:27;2.97;;;1.93;;
13228;SDS011;6680;53.220;10.402;2022-09-09T07:18:55;3.20;;;2.63;;
13228;SDS011;6680;53.220;10.402;2022-09-09T07:21:22;3.07;;;2.47;;
13228;SDS011;6680;53.220;10.402;2022-09-09T07:23:51;4.00;;;2.47;;
13228;SDS011;6680;53.220;10.402;2022-09-09T07:26:19;3.17;;;2.70;;
13228;SDS011;6680;53.220;10.402;2022-09-09T07:28:47;2.77;;;2.47;;
13228;SDS011;6680;53.220;10.402;2022-09-09T07:31:15;2.87;;;2.20;;
13228;SDS011;6680;53.220;10.402;2022-09-09T07:33:43;2.40;;;2.20;;
13228;SDS011;6680;53.220;10.402;2022-09-09T07:36:14;3.23;;;1.97;;
13228;SDS011;6680;53.220;10.402;2022-09-09T07:38:43;2.73;;;2.53;;
13228;SDS011;6680;53.220;10.402;2022-09-09T07:41:11;4.97;;;2.10;;
13228;SDS011;6680;53.220;10.402;2022-09-09T07:43:39;4.97;;;1.90;;
13228;SDS011;6680;53.220;10.402;2022-09-09T07:46:06;2.60;;;1.93;;
13228;SDS011;6680;53.220;10.402;2022-09-09T07:48:34;3.37;;;2.17;;
13228;SDS011;6680;53.220;10.402;2022-09-09T07:51:08;2.50;;;2.30;;
13228;SDS011;6680;53.220;10.402;2022-09-09T07:53:38;3.90;;;2.10;;
13228;SDS011;6680;53.220;10.402;2022-09-09T07:56:05;5.10;;;2.20;;
13228;SDS011;6680;53.220;10.402;2022-09-09T07:58:34;2.87;;;2.67;;
13228;SDS011;6680;53.220;10.402;2022-09-09T08:01:05;2.23;;;2.07;;
13228;SDS011;6680;53.220;10.402;2022-09-09T08:03:33;4.13;;;2.33;;
13228;SDS011;6680;53.220;10.402;2022-09-09T08:06:00;2.20;;;2.00;;
13228;SDS011;6680;53.220;10.402;2022-09-09T08:08:28;2.70;;;2.23;;
13228;SDS011;6680;53.220;10.402;2022-09-09T08:11:04;2.67;;;2.40;;
13228;SDS011;6680;53.220;10.402;2022-09-09T08:13:34;2.57;;;2.27;;
13228;SDS011;6680;53.220;10.402;2022-09-09T08:16:05;2.37;;;2.20;;
13228;SDS011;6680;53.220;10.402;2022-09-09T08:18:33;2.47;;;2.27;;
13228;SDS011;6680;53.220;10.402;2022-09-09T08:21:06;2.53;;;2.00;;
13228;SDS011;6680;53.220;10.402;2022-09-09T08:23:36;2.63;;;2.20;;
13228;SDS011;6680;53.220;10.402;2022-09-09T08:26:06;5.57;;;2.33;;
13228;SDS011;6680;53.220;10.402;2022-09-09T08:28:35;3.20;;;2.40;;
13228;SDS011;6680;53.220;10.402;2022-09-09T08:31:05;2.37;;;2.23;;
13228;SDS011;6680;53.220;10.402;2022-09-09T08:33:34;4.07;;;2.10;;
13228;SDS011;6680;53.220;10.402;2022-09-09T08:36:03;2.00;;;1.90;;
13228;SDS011;6680;53.220;10.402;2022-09-09T08:38:30;3.80;;;2.03;;
13228;SDS011;6680;53.220;10.402;2022-09-09T08:40:58;4.67;;;2.10;;
13228;SDS011;6680;53.220;10.402;2022-09-09T08:43:38;2.70;;;2.00;;
13228;SDS011;6680;53.220;10.402;2022-09-09T08:46:08;2.80;;;1.80;;
13228;SDS011;6680;53.220;10.402;2022-09-09T08:48:42;3.53;;;2.20;;
13228;SDS011;6680;53.220;10.402;2022-09-09T08:51:17;2.03;;;1.90;;
13228;SDS011;6680;53.220;10.402;2022-09-09T08:53:46;2.30;;;2.10;;
13228;SDS011;6680;53.220;10.402;2022-09-09T08:56:18;3.30;;;2.23;;
13228;SDS011;6680;53.220;10.402;2022-09-09T08:58:52;2.03;;;1.83;;
13228;SDS011;6680;53.220;10.402;2022-09-09T09:01:26;3.03;;;2.23;;
13228;SDS011;6680;53.220;10.402;2022-09-09T09:04:11;2.50;;;2.20;;
13228;SDS011;6680;53.220;10.402;2022-09-09T09:06:50;2.03;;;1.83;;
13228;SDS011;6680;53.220;10.402;2022-09-09T09:09:29;2.70;;;2.10;;
13228;SDS011;6680;53.220;10.402;2022-09-09T09:12:10;2.07;;;1.97;;
13228;SDS011;6680;53.220;10.402;2022-09-09T09:14:43;2.30;;;2.10;;
13228;SDS011;6680;53.220;10.402;2022-09-09T09:17:12;3.17;;;2.20;;
13228;SDS011;6680;53.220;10.402;2022-09-09T09:19:41;2.90;;;2.60;;
13228;SDS011;6680;53.220;10.402;2022-09-09T09:22:14;2.00;;;1.90;;
13228;SDS011;6680;53.220;10.402;2022-09-09T09:24:45;2.27;;;2.10;;
13228;SDS011;6680;53.220;10.402;2022-09-09T09:27:18;3.03;;;2.00;;
13228;SDS011;6680;53.220;10.402;2022-09-09T09:29:54;2.50;;;2.30;;
13228;SDS011;6680;53.220;10.402;2022-09-09T09:32:24;2.10;;;2.00;;
13228;SDS011;6680;53.220;10.402;2022-09-09T09:34:53;2.27;;;2.07;;
13228;SDS011;6680;53.220;10.402;2022-09-09T09:37:30;1.87;;;1.77;;
13228;SDS011;6680;53.220;10.402;2022-09-09T09:40:07;3.93;;;2.13;;
13228;SDS011;6680;53.220;10.402;2022-09-09T09:42:35;2.73;;;1.80;;
13228;SDS011;6680;53.220;10.402;2022-09-09T09:45:12;4.23;;;2.40;;
13228;SDS011;6680;53.220;10.402;2022-09-09T09:47:43;2.93;;;1.97;;
13228;SDS011;6680;53.220;10.402;2022-09-09T09:50:15;6.43;;;2.67;;
13228;SDS011;6680;53.220;10.402;2022-09-09T09:52:51;3.83;;;2.27;;
13228;SDS011;6680;53.220;10.402;2022-09-09T09:55:20;3.33;;;2.07;;
13228;SDS011;6680;53.220;10.402;2022-09-09T09:57:49;5.50;;;2.00;;
13228;SDS011;6680;53.220;10.402;2022-09-09T10:00:18;3.43;;;1.83;;
13228;SDS011;6680;53.220;10.402;2022-09-09T10:02:47;3.13;;;2.00;;
13228;SDS011;6680;53.220;10.402;2022-09-09T10:05:17;2.33;;;2.13;;
13228;SDS011;6680;53.220;10.402;2022-09-09T10:07:46;1.90;;;1.70;;
13228;SDS011;6680;53.220;10.402;2022-09-09T10:10:26;2.90;;;2.50;;
13228;SDS011;6680;53.220;10.402;2022-09-09T10:13:01;2.73;;;2.17;;
13228;SDS011;6680;53.220;10.402;2022-09-09T10:15:38;2.60;;;2.00;;
13228;SDS011;6680;53.220;10.402;2022-09-09T10:18:17;2.50;;;2.30;;
13228;SDS011;6680;53.220;10.402;2022-09-09T10:20:58;2.07;;;1.97;;
13228;SDS011;6680;53.220;10.402;2022-09-09T10:23:41;2.23;;;1.80;;
13228;SDS011;6680;53.220;10.402;2022-09-09T10:26:21;2.23;;;1.90;;
13228;SDS011;6680;53.220;10.402;2022-09-09T10:31:59;3.47;;;1.90;;
13228;SDS011;6680;53.220;10.402;2022-09-09T10:34:45;2.60;;;1.83;;
13228;SDS011;6680;53.220;10.402;2022-09-09T10:37:24;3.63;;;2.37;;
13228;SDS011;6680;53.220;10.402;2022-09-09T10:40:02;1.60;;;1.50;;
13228;SDS011;6680;53.220;10.402;2022-09-09T10:42:40;2.70;;;1.87;;
13228;SDS011;6680;53.220;10.402;2022-09-09T10:45:13;2.00;;;1.80;;
13228;SDS011;6680;53.220;10.402;2022-09-09T10:47:56;1.63;;;1.53;;
13228;SDS011;6680;53.220;10.402;2022-09-09T10:50:42;1.90;;;1.80;;
13228;SDS011;6680;53.220;10.402;2022-09-09T10:53:14;1.40;;;1.40;;
13228;SDS011;6680;53.220;10.402;2022-09-09T10:55:51;1.80;;;1.70;;
13228;SDS011;6680;53.220;10.402;2022-09-09T10:58:20;2.17;;;2.00;;
13228;SDS011;6680;53.220;10.402;2022-09-09T11:00:51;1.83;;;1.60;;
13228;SDS011;6680;53.220;10.402;2022-09-09T11:03:23;3.27;;;1.57;;
13228;SDS011;6680;53.220;10.402;2022-09-09T11:05:55;2.00;;;1.73;;
13228;SDS011;6680;53.220;10.402;2022-09-09T11:08:25;1.83;;;1.73;;
13228;SDS011;6680;53.220;10.402;2022-09-09T11:10:56;2.17;;;2.07;;
13228;SDS011;6680;53.220;10.402;2022-09-09T11:13:29;2.43;;;1.90;;
13228;SDS011;6680;53.220;10.402;2022-09-09T11:16:04;2.43;;;1.77;;
13228;SDS011;6680;53.220;10.402;2022-09-09T11:18:43;2.37;;;1.83;;
13228;SDS011;6680;53.220;10.402;2022-09-09T11:21:14;1.80;;;1.70;;
13228;SDS011;6680;53.220;10.402;2022-09-09T11:23:46;2.83;;;2.20;;
13228;SDS011;6680;53.220;10.402;2022-09-09T11:26:20;2.97;;;2.10;;
13228;SDS011;6680;53.220;10.402;2022-09-09T11:28:58;7.93;;;2.27;;
13228;SDS011;6680;53.220;10.402;2022-09-09T11:31:42;3.43;;;2.10;;
13228;SDS011;6680;53.220;10.402;2022-09-09T11:34:16;1.87;;;1.73;;
13228;SDS011;6680;53.220;10.402;2022-09-09T11:37:00;2.10;;;1.67;;
13228;SDS011;6680;53.220;10.402;2022-09-09T11:39:50;2.10;;;1.90;;
13228;SDS011;6680;53.220;10.402;2022-09-09T11:42:30;1.70;;;1.60;;
13228;SDS011;6680;53.220;10.402;2022-09-09T11:44:57;4.50;;;2.07;;
13228;SDS011;6680;53.220;10.402;2022-09-09T11:47:36;4.13;;;2.33;;
13228;SDS011;6680;53.220;10.402;2022-09-09T11:50:26;4.20;;;2.50;;
13228;SDS011;6680;53.220;10.402;2022-09-09T11:53:03;1.63;;;1.53;;
13228;SDS011;6680;53.220;10.402;2022-09-09T11:55:32;1.93;;;1.83;;
13228;SDS011;6680;53.220;10.402;2022-09-09T11:58:02;2.13;;;1.93;;
13228;SDS011;6680;53.220;10.402;2022-09-09T12:00:34;4.17;;;2.20;;
13228;SDS011;6680;53.220;10.402;2022-09-09T12:03:03;3.67;;;1.80;;
13228;SDS011;6680;53.220;10.402;2022-09-09T12:05:39;2.67;;;2.33;;
13228;SDS011;6680;53.220;10.402;2022-09-09T12:08:08;2.33;;;2.13;;
13228;SDS011;6680;53.220;10.402;2022-09-09T12:10:38;2.50;;;1.93;;
13228;SDS011;6680;53.220;10.402;2022-09-09T12:13:15;2.60;;;2.17;;
13228;SDS011;6680;53.220;10.402;2022-09-09T12:15:46;2.83;;;2.27;;
13228;SDS011;6680;53.220;10.402;2022-09-09T12:18:14;2.73;;;1.90;;
13228;SDS011;6680;53.220;10.402;2022-09-09T12:20:52;3.23;;;2.30;;
13228;SDS011;6680;53.220;10.402;2022-09-09T12:23:29;2.40;;;2.20;;
13228;SDS011;6680;53.220;10.402;2022-09-09T12:26:04;4.60;;;2.07;;
13228;SDS011;6680;53.220;10.402;2022-09-09T12:28:40;1.73;;;1.63;;
13228;SDS011;6680;53.220;10.402;2022-09-09T12:31:14;4.27;;;2.43;;
13228;SDS011;6680;53.220;10.402;2022-09-09T12:33:47;2.87;;;2.00;;
13228;SDS011;6680;53.220;10.402;2022-09-09T12:36:15;2.90;;;2.13;;
13228;SDS011;6680;53.220;10.402;2022-09-09T12:38:45;2.40;;;2.20;;
13228;SDS011;6680;53.220;10.402;2022-09-09T12:41:18;2.53;;;1.90;;
13228;SDS011;6680;53.220;10.402;2022-09-09T12:43:47;2.40;;;1.90;;
13228;SDS011;6680;53.220;10.402;2022-09-09T12:46:17;1.90;;;1.80;;
13228;SDS011;6680;53.220;10.402;2022-09-09T12:48:52;2.30;;;2.10;;
13228;SDS011;6680;53.220;10.402;2022-09-09T12:51:23;2.33;;;2.00;;
13228;SDS011;6680;53.220;10.402;2022-09-09T12:53:53;2.33;;;2.00;;
13228;SDS011;6680;53.220;10.402;2022-09-09T12:56:21;3.50;;;1.93;;
13228;SDS011;6680;53.220;10.402;2022-09-09T12:58:51;2.67;;;1.90;;
13228;SDS011;6680;53.220;10.402;2022-09-09T13:01:20;2.00;;;1.90;;
13228;SDS011;6680;53.220;10.402;2022-09-09T13:03:48;3.23;;;2.27;;
13228;SDS011;6680;53.220;10.402;2022-09-09T13:06:18;4.03;;;2.07;;
13228;SDS011;6680;53.220;10.402;2022-09-09T13:08:49;2.37;;;2.20;;
13228;SDS011;6680;53.220;10.402;2022-09-09T13:11:17;2.80;;;2.57;;
13228;SDS011;6680;53.220;10.402;2022-09-09T13:13:51;2.70;;;2.50;;
13228;SDS011;6680;53.220;10.402;2022-09-09T13:16:20;2.50;;;1.90;;
13228;SDS011;6680;53.220;10.402;2022-09-09T13:18:49;4.63;;;2.00;;
13228;SDS011;6680;53.220;10.402;2022-09-09T13:21:16;2.77;;;2.00;;
13228;SDS011;6680;53.220;10.402;2022-09-09T13:23:49;2.40;;;2.20;;
13228;SDS011;6680;53.220;10.402;2022-09-09T13:26:20;2.77;;;2.33;;
13228;SDS011;6680;53.220;10.402;2022-09-09T13:28:49;2.37;;;2.17;;
13228;SDS011;6680;53.220;10.402;2022-09-09T13:31:21;2.00;;;1.90;;
13228;SDS011;6680;53.220;10.402;2022-09-09T13:33:49;2.37;;;2.20;;
13228;SDS011;6680;53.220;10.402;2022-09-09T13:36:18;2.73;;;2.43;;
13228;SDS011;6680;53.220;10.402;2022-09-09T13:38:57;3.10;;;2.63;;
13228;SDS011;6680;53.220;10.402;2022-09-09T13:41:34;3.27;;;2.40;;
13228;SDS011;6680;53.220;10.402;2022-09-09T13:44:02;2.17;;;2.00;;
13228;SDS011;6680;53.220;10.402;2022-09-09T13:46:32;4.10;;;2.80;;
13228;SDS011;6680;53.220;10.402;2022-09-09T13:49:01;2.47;;;2.23;;
13228;SDS011;6680;53.220;10.402;2022-09-09T13:51:45;2.50;;;2.30;;
13228;SDS011;6680;53.220;10.402;2022-09-09T13:54:15;3.87;;;2.13;;
13228;SDS011;6680;53.220;10.402;2022-09-09T13:56:44;2.40;;;2.20;;
13228;SDS011;6680;53.220;10.402;2022-09-09T13:59:11;3.50;;;2.47;;
13228;SDS011;6680;53.220;10.402;2022-09-09T14:01:40;2.77;;;2.00;;
13228;SDS011;6680;53.220;10.402;2022-09-09T14:04:07;1.67;;;1.57;;
13228;SDS011;6680;53.220;10.402;2022-09-09T14:06:35;1.70;;;1.60;;
13228;SDS011;6680;53.220;10.402;2022-09-09T14:09:04;1.63;;;1.53;;
13228;SDS011;6680;53.220;10.402;2022-09-09T14:11:32;1.47;;;1.47;;
13228;SDS011;6680;53.220;10.402;2022-09-09T14:13:59;1.60;;;1.50;;
13228;SDS011;6680;53.220;10.402;2022-09-09T14:16:26;2.13;;;1.73;;
13228;SDS011;6680;53.220;10.402;2022-09-09T14:18:53;1.93;;;1.70;;
13228;SDS011;6680;53.220;10.402;2022-09-09T14:21:21;2.57;;;1.80;;
13228;SDS011;6680;53.220;10.402;2022-09-09T14:23:48;3.23;;;1.40;;
13228;SDS011;6680;53.220;10.402;2022-09-09T14:26:15;1.80;;;1.70;;
13228;SDS011;6680;53.220;10.402;2022-09-09T14:28:45;1.73;;;1.63;;
13228;SDS011;6680;53.220;10.402;2022-09-09T14:31:12;1.67;;;1.57;;
13228;SDS011;6680;53.220;10.402;2022-09-09T14:33:39;3.07;;;1.40;;
13228;SDS011;6680;53.220;10.402;2022-09-09T14:36:06;4.00;;;1.63;;
13228;SDS011;6680;53.220;10.402;2022-09-09T14:38:34;1.93;;;1.73;;
13228;SDS011;6680;53.220;10.402;2022-09-09T14:41:04;1.87;;;1.50;;
13228;SDS011;6680;53.220;10.402;2022-09-09T14:43:31;1.83;;;1.73;;
13228;SDS011;6680;53.220;10.402;2022-09-09T14:46:05;1.63;;;1.53;;
13228;SDS011;6680;53.220;10.402;2022-09-09T14:48:32;1.60;;;1.50;;
13228;SDS011;6680;53.220;10.402;2022-09-09T14:51:04;1.10;;;1.10;;
13228;SDS011;6680;53.220;10.402;2022-09-09T14:53:31;1.10;;;1.10;;
13228;SDS011;6680;53.220;10.402;2022-09-09T14:56:02;1.47;;;1.37;;
13228;SDS011;6680;53.220;10.402;2022-09-09T14:58:31;1.40;;;1.40;;
13228;SDS011;6680;53.220;10.402;2022-09-09T15:01:01;1.70;;;1.60;;
13228;SDS011;6680;53.220;10.402;2022-09-09T15:03:31;2.10;;;1.80;;
13228;SDS011;6680;53.220;10.402;2022-09-09T15:05:58;1.17;;;1.17;;
13228;SDS011;6680;53.220;10.402;2022-09-09T15:08:30;1.40;;;1.27;;
13228;SDS011;6680;53.220;10.402;2022-09-09T15:10:58;1.63;;;1.53;;
13228;SDS011;6680;53.220;10.402;2022-09-09T15:13:26;2.80;;;1.50;;